Time;durP1;ratioP1;P1;durP2;ratioP2;P2;SDS_P1;SDS_P2;PMS_P1;PMS_P2;Temp;Humidity;BMP_temperature;BMP_pressure;BME280_temperature;BME280_humidity;BME280_pressure;Samples;Min_cycle;Max_cycle;Signal;HPM_P1;HPM_P2
2023/09/25 00:01:41;;;;;;;1.83;1.63;;;;;;;10.81;100.00;97233.84;5035046;28;20322;-58
2023/09/25 00:04:08;;;;;;;3.17;1.87;;;;;;;10.83;100.00;97221.34;5051789;28;20218;-57
2023/09/25 00:06:34;;;;;;;1.70;1.60;;;;;;;10.75;100.00;97229.09;5044468;28;20211;-57
2023/09/25 00:09:01;;;;;;;1.97;1.70;;;;;;;10.69;100.00;97238.38;5036752;28;20223;-58
2023/09/25 00:11:28;;;;;;;2.47;1.40;;;;;;;10.84;100.00;97229.13;5054987;28;20211;-57
2023/09/25 00:13:56;;;;;;;3.30;1.93;;;;;;;10.79;100.00;97233.16;5041475;28;20211;-57
2023/09/25 00:16:23;;;;;;;2.87;2.00;;;;;;;10.71;100.00;97228.50;5045681;28;20216;-58
2023/09/25 00:18:50;;;;;;;2.13;1.90;;;;;;;10.61;100.00;97237.34;5041162;28;20536;-57
2023/09/25 00:21:18;;;;;;;1.50;1.30;;;;;;;10.60;100.00;97233.84;5043395;28;20235;-57
2023/09/25 00:23:44;;;;;;;3.90;1.40;;;;;;;10.58;100.00;97241.09;5053335;28;20304;-58
2023/09/25 00:26:13;;;;;;;2.03;1.83;;;;;;;10.59;100.00;97234.84;5042991;28;20311;-57
2023/09/25 00:28:41;;;;;;;2.80;1.90;;;;;;;10.58;100.00;97235.78;5039568;28;20235;-57
2023/09/25 00:31:08;;;;;;;2.80;1.50;;;;;;;10.56;100.00;97227.13;5054628;28;20261;-57
2023/09/25 00:33:35;;;;;;;2.27;1.80;;;;;;;10.53;100.00;97231.84;5035034;28;20211;-58
2023/09/25 00:36:01;;;;;;;2.03;1.80;;;;;;;10.47;100.00;97227.91;5034720;28;20207;-57
2023/09/25 00:38:28;;;;;;;1.70;1.60;;;;;;;10.42;100.00;97236.22;5040117;28;20217;-58
2023/09/25 00:40:55;;;;;;;2.50;1.70;;;;;;;10.41;100.00;97231.09;5042400;28;20231;-59
2023/09/25 00:43:21;;;;;;;2.33;2.10;;;;;;;10.41;100.00;97233.72;5041883;28;20203;-58
2023/09/25 00:45:49;;;;;;;2.47;1.57;;;;;;;10.38;100.00;97234.00;5042468;28;20207;-57
2023/09/25 00:48:23;;;;;;;1.93;1.80;;;;;;;10.34;100.00;97229.91;5042315;28;20212;-57
2023/09/25 00:50:49;;;;;;;2.50;1.50;;;;;;;10.33;100.00;97230.88;5048985;28;20199;-57
2023/09/25 00:53:16;;;;;;;1.67;1.57;;;;;;;10.30;100.00;97228.50;5046062;28;20269;-58
2023/09/25 00:55:43;;;;;;;2.37;1.90;;;;;;;10.24;100.00;97223.69;5035646;28;20212;-58
2023/09/25 00:58:11;;;;;;;3.07;1.80;;;;;;;10.24;100.00;97226.31;5034853;28;20212;-58
2023/09/25 01:00:38;;;;;;;1.57;1.47;;;;;;;10.21;100.00;97232.72;5047424;28;20211;-58
2023/09/25 01:03:06;;;;;;;2.40;1.67;;;;;;;10.25;100.00;97230.66;5036140;28;20222;-58
2023/09/25 01:05:36;;;;;;;1.87;1.57;;;;;;;10.27;100.00;97232.19;5035422;28;20212;-58
2023/09/25 01:08:02;;;;;;;2.87;1.80;;;;;;;10.22;100.00;97241.50;5034355;28;20211;-57
2023/09/25 01:10:29;;;;;;;2.57;1.70;;;;;;;10.24;100.00;97244.84;5048143;28;20226;-57
2023/09/25 01:12:56;;;;;;;2.17;1.70;;;;;;;10.16;100.00;97237.56;5053763;28;20700;-57
2023/09/25 01:15:23;;;;;;;2.10;1.90;;;;;;;10.10;100.00;97242.44;5050983;28;20727;-57
2023/09/25 01:17:51;;;;;;;1.77;1.67;;;;;;;10.07;100.00;97237.41;5038750;28;20204;-57
2023/09/25 01:20:19;;;;;;;1.90;1.80;;;;;;;10.11;100.00;97238.84;5033768;28;20211;-57
2023/09/25 01:22:49;;;;;;;2.07;1.60;;;;;;;10.06;100.00;97246.34;5044202;28;20574;-57
2023/09/25 01:25:16;;;;;;;3.30;2.00;;;;;;;10.03;100.00;97236.81;5054052;28;20203;-57
2023/09/25 01:27:46;;;;;;;5.20;1.73;;;;;;;10.03;100.00;97234.19;5043210;28;20239;-57
2023/09/25 01:30:14;;;;;;;2.77;1.90;;;;;;;10.06;100.00;97227.84;5034246;28;20208;-57
2023/09/25 01:32:43;;;;;;;4.77;2.00;;;;;;;9.99;100.00;97230.97;5034225;28;20211;-57
2023/09/25 01:35:13;;;;;;;1.80;1.70;;;;;;;9.92;100.00;97226.28;5033609;28;20210;-57
2023/09/25 01:37:40;;;;;;;2.00;1.90;;;;;;;9.95;100.00;97220.78;5034100;28;20200;-57
2023/09/25 01:40:15;;;;;;;3.07;1.80;;;;;;;9.98;100.00;97216.09;5039374;28;20566;-58
2023/09/25 01:42:42;;;;;;;3.50;1.83;;;;;;;9.98;100.00;97213.44;5042158;28;20302;-57
2023/09/25 01:45:09;;;;;;;1.90;1.80;;;;;;;9.99;100.00;97215.09;5033951;28;20228;-58
2023/09/25 01:47:37;;;;;;;2.07;1.97;;;;;;;9.99;100.00;97215.09;5041551;28;20233;-57
2023/09/25 01:50:05;;;;;;;1.80;1.67;;;;;;;9.98;100.00;97209.97;5033528;28;20204;-58
2023/09/25 01:52:31;;;;;;;2.27;1.93;;;;;;;9.93;100.00;97212.13;5033794;28;20527;-58
2023/09/25 01:55:00;;;;;;;3.63;1.90;;;;;;;9.95;100.00;97208.38;5033725;28;20218;-57
2023/09/25 01:57:28;;;;;;;2.53;1.83;;;;;;;9.91;100.00;97201.69;5046819;28;20203;-57
2023/09/25 01:59:56;;;;;;;2.30;2.10;;;;;;;9.89;100.00;97206.25;5033769;28;20230;-58
2023/09/25 02:02:22;;;;;;;2.07;1.87;;;;;;;9.86;100.00;97203.88;5033606;28;20255;-58
2023/09/25 02:04:49;;;;;;;2.23;1.83;;;;;;;9.87;100.00;97192.34;5033349;28;20216;-57
2023/09/25 02:07:16;;;;;;;2.30;2.10;;;;;;;9.82;100.00;97202.44;5036721;28;20203;-57
2023/09/25 02:09:45;;;;;;;1.93;1.70;;;;;;;9.81;100.00;97198.09;5050883;28;20632;-57
2023/09/25 02:12:11;;;;;;;2.37;1.80;;;;;;;9.79;100.00;97213.25;5041877;28;20199;-58
2023/09/25 02:14:39;;;;;;;2.13;1.70;;;;;;;9.83;100.00;97203.28;5037439;28;20226;-58
2023/09/25 02:17:06;;;;;;;1.60;1.50;;;;;;;9.82;100.00;97202.44;5040931;28;20211;-57
2023/09/25 02:19:32;;;;;;;1.60;1.50;;;;;;;9.79;100.00;97204.50;5046637;28;20233;-58
2023/09/25 02:21:59;;;;;;;2.30;2.10;;;;;;;9.74;100.00;97204.03;5052565;28;20227;-58
2023/09/25 02:24:25;;;;;;;2.27;2.10;;;;;;;9.75;100.00;97203.06;5037147;28;20212;-58
2023/09/25 02:26:51;;;;;;;2.70;2.07;;;;;;;9.71;100.00;97202.47;5036490;28;20636;-58
2023/09/25 02:29:20;;;;;;;2.90;1.90;;;;;;;9.72;100.00;97201.50;5047890;28;20543;-57
2023/09/25 02:31:48;;;;;;;4.13;2.00;;;;;;;9.65;100.00;97199.47;5056720;28;20290;-57
2023/09/25 02:34:16;;;;;;;3.03;1.77;;;;;;;9.60;100.00;97191.13;5045132;28;20534;-58
2023/09/25 02:36:43;;;;;;;2.43;1.90;;;;;;;9.59;100.00;97195.53;5055347;28;20603;-57
2023/09/25 02:39:10;;;;;;;2.20;2.00;;;;;;;9.53;100.00;97201.31;5045085;28;20208;-57
2023/09/25 02:41:36;;;;;;;2.77;1.90;;;;;;;9.52;100.00;97194.38;5036704;28;20314;-57
2023/09/25 02:44:04;;;;;;;3.60;1.83;;;;;;;9.52;100.00;97196.16;5037323;28;20200;-58
2023/09/25 02:46:31;;;;;;;2.60;2.03;;;;;;;9.54;100.00;97202.13;5042252;28;20215;-57
2023/09/25 02:48:58;;;;;;;2.70;1.90;;;;;;;9.58;100.00;97196.50;5043770;28;20227;-58
2023/09/25 02:51:25;;;;;;;2.07;1.90;;;;;;;9.58;100.00;97193.84;5036483;28;20204;-58
2023/09/25 02:53:52;;;;;;;2.93;2.30;;;;;;;9.55;100.00;97194.09;5036477;28;20222;-58
2023/09/25 02:56:18;;;;;;;2.17;2.07;;;;;;;9.52;100.00;97199.63;5042458;28;20203;-57
2023/09/25 02:58:46;;;;;;;1.97;1.87;;;;;;;9.47;100.00;97194.72;5044038;28;20219;-57
2023/09/25 03:01:12;;;;;;;4.87;2.00;;;;;;;9.47;100.00;97204.44;5042415;28;20214;-57
2023/09/25 03:03:40;;;;;;;2.60;2.13;;;;;;;9.45;100.00;97199.31;5043369;28;20208;-57
2023/09/25 03:06:08;;;;;;;2.17;2.00;;;;;;;9.45;100.00;97201.09;5036235;28;20204;-57
2023/09/25 03:08:34;;;;;;;2.73;2.43;;;;;;;9.39;100.00;97194.47;5036640;28;20211;-57
2023/09/25 03:11:01;;;;;;;2.50;2.20;;;;;;;9.42;100.00;97209.25;5050760;28;20242;-57
2023/09/25 03:13:27;;;;;;;2.80;2.37;;;;;;;9.45;100.00;97199.31;5043988;28;20239;-58
2023/09/25 03:15:54;;;;;;;3.83;2.33;;;;;;;9.43;100.00;97206.47;5052861;28;20226;-58
2023/09/25 03:18:21;;;;;;;2.03;1.93;;;;;;;9.42;100.00;97204.78;5045293;28;20199;-58
2023/09/25 03:20:47;;;;;;;2.33;2.00;;;;;;;9.34;100.00;97207.22;5040060;28;20207;-58
2023/09/25 03:23:15;;;;;;;3.13;2.17;;;;;;;9.31;100.00;97206.63;5041150;28;20236;-57
2023/09/25 03:25:42;;;;;;;2.80;2.50;;;;;;;9.32;100.00;97210.94;5052793;28;20208;-58
2023/09/25 03:28:09;;;;;;;2.37;2.00;;;;;;;9.32;100.00;97209.13;5038133;28;20235;-57
2023/09/25 03:30:35;;;;;;;2.63;2.03;;;;;;;9.28;100.00;97214.78;5042820;28;20219;-56
2023/09/25 03:33:02;;;;;;;2.40;2.07;;;;;;;9.22;100.00;97216.09;5042277;28;20216;-57
2023/09/25 03:35:28;;;;;;;3.33;2.33;;;;;;;9.26;100.00;97214.06;5035281;28;20226;-57
2023/09/25 03:37:55;;;;;;;4.40;2.10;;;;;;;9.29;100.00;97211.19;5035685;28;20212;-57
2023/09/25 03:40:22;;;;;;;3.53;2.20;;;;;;;9.29;100.00;97209.38;5042747;28;20211;-59
2023/09/25 03:42:49;;;;;;;3.03;2.10;;;;;;;9.32;100.00;97211.78;5043581;28;20222;-58
2023/09/25 03:45:15;;;;;;;3.50;2.47;;;;;;;9.33;100.00;97209.97;5035756;28;20208;-58
2023/09/25 03:47:42;;;;;;;2.73;2.20;;;;;;;9.31;100.00;97206.63;5044242;28;20210;-58
2023/09/25 03:50:10;;;;;;;2.57;2.37;;;;;;;9.27;100.00;97207.84;5046171;28;20207;-58
2023/09/25 03:52:37;;;;;;;3.93;2.50;;;;;;;9.22;100.00;97199.44;5035223;28;20646;-58
2023/09/25 03:55:04;;;;;;;4.27;2.33;;;;;;;9.27;100.00;97205.19;5035606;28;20218;-57
2023/09/25 03:57:32;;;;;;;2.97;2.50;;;;;;;9.23;100.00;97209.03;5051095;28;20207;-58
2023/09/25 03:59:58;;;;;;;3.80;2.77;;;;;;;9.20;100.00;97206.63;5046164;28;20226;-57
2023/09/25 04:02:25;;;;;;;6.90;3.03;;;;;;;9.18;100.00;97211.19;5035922;28;21587;-57
2023/09/25 04:04:52;;;;;;;6.00;3.23;;;;;;;9.16;100.00;97203.41;5034916;28;20678;-59
2023/09/25 04:07:18;;;;;;;3.47;2.57;;;;;;;9.09;100.00;97204.84;5048836;28;20269;-60
2023/09/25 04:09:45;;;;;;;2.83;2.43;;;;;;;9.06;100.00;97206.88;5044443;28;20207;-58
2023/09/25 04:12:11;;;;;;;5.53;3.00;;;;;;;9.06;100.00;97220.06;5052221;28;20212;-59
2023/09/25 04:14:40;;;;;;;4.33;2.70;;;;;;;9.11;100.00;97217.91;5035320;28;20598;-58
2023/09/25 04:17:08;;;;;;;3.47;2.30;;;;;;;9.02;100.00;97221.25;5043628;28;20205;-59
2023/09/25 04:19:34;;;;;;;3.03;2.53;;;;;;;8.96;100.00;97225.22;5054636;28;20384;-58
2023/09/25 04:22:06;;;;;;;4.07;2.97;;;;;;;8.94;100.00;97224.50;5041357;28;20258;-58
2023/09/25 04:24:33;;;;;;;3.13;2.70;;;;;;;8.94;100.00;97227.13;5055032;28;20273;-58
2023/09/25 04:27:02;;;;;;;4.83;3.10;;;;;;;8.99;100.00;97236.38;5036241;28;20212;-58
2023/09/25 04:29:28;;;;;;;2.60;2.40;;;;;;;9.04;100.00;97235.16;5034945;28;20219;-58
2023/09/25 04:31:56;;;;;;;4.50;2.80;;;;;;;8.99;100.00;97233.75;5039750;28;20207;-57
2023/09/25 04:34:22;;;;;;;3.93;2.53;;;;;;;8.97;100.00;97229.53;5042375;28;20277;-58
2023/09/25 04:36:49;;;;;;;3.07;2.77;;;;;;;8.96;100.00;97233.97;5047984;28;20204;-57
2023/09/25 04:39:16;;;;;;;3.57;2.63;;;;;;;8.89;100.00;97235.38;5034856;28;20222;-57
2023/09/25 04:41:43;;;;;;;4.57;2.70;;;;;;;8.84;100.00;97239.34;5034322;28;20258;-57
2023/09/25 04:44:09;;;;;;;2.83;2.63;;;;;;;8.85;100.00;97233.97;5037537;28;20230;-56
2023/09/25 04:46:37;;;;;;;4.17;2.63;;;;;;;8.84;100.00;97229.66;5034871;28;20290;-58
2023/09/25 04:49:06;;;;;;;8.17;3.20;;;;;;;8.83;100.00;97222.69;5045799;28;20224;-58
2023/09/25 04:51:33;;;;;;;2.83;2.30;;;;;;;8.89;100.00;97222.19;5035499;28;20265;-58
2023/09/25 04:54:00;;;;;;;3.47;2.60;;;;;;;8.90;100.00;97223.88;5034325;28;20207;-57
2023/09/25 04:56:27;;;;;;;3.17;2.77;;;;;;;8.80;100.00;97232.63;5035408;28;20219;-59
2023/09/25 04:58:53;;;;;;;3.43;2.77;;;;;;;8.85;100.00;97230.50;5035430;28;20675;-58
2023/09/25 05:01:21;;;;;;;2.77;2.53;;;;;;;8.84;100.00;97232.28;5055233;28;20222;-58
2023/09/25 05:03:48;;;;;;;5.93;2.93;;;;;;;8.81;100.00;97236.94;5054550;28;20337;-58
2023/09/25 05:06:15;;;;;;;3.27;2.50;;;;;;;8.81;100.00;97237.81;5054724;28;20206;-58
2023/09/25 05:08:43;;;;;;;2.40;2.30;;;;;;;8.81;100.00;97236.94;5040916;28;20215;-57
2023/09/25 05:11:10;;;;;;;2.90;2.70;;;;;;;8.86;100.00;97233.00;5054574;28;20204;-58
2023/09/25 05:13:37;;;;;;;2.90;2.70;;;;;;;8.85;100.00;97241.88;5041013;28;20299;-58
2023/09/25 05:16:04;;;;;;;4.70;2.70;;;;;;;8.80;100.00;97243.19;5054587;28;20207;-58
2023/09/25 05:18:30;;;;;;;3.40;2.60;;;;;;;8.76;100.00;97250.47;5038782;28;20229;-59
2023/09/25 05:20:58;;;;;;;3.03;2.80;;;;;;;8.74;100.00;97244.50;5044468;28;20199;-58
2023/09/25 05:23:26;;;;;;;5.33;2.43;;;;;;;8.77;100.00;97244.25;5038436;28;20592;-56
2023/09/25 05:25:53;;;;;;;2.67;2.40;;;;;;;8.89;100.00;97251.22;5033908;28;20207;-58
2023/09/25 05:28:20;;;;;;;4.40;2.97;;;;;;;8.88;100.00;97246.06;5033602;28;20261;-58
2023/09/25 05:30:53;;;;;;;4.40;2.97;;;;;;;8.90;100.00;97250.25;5043816;28;20206;-57
2023/09/25 05:33:19;;;;;;;3.97;2.73;;;;;;;8.90;100.00;97245.00;5036580;28;20200;-58
2023/09/25 05:35:46;;;;;;;3.20;2.80;;;;;;;8.96;100.00;97249.78;5034057;28;20223;-57
2023/09/25 05:38:12;;;;;;;2.60;2.40;;;;;;;8.95;100.00;97248.13;5033839;28;20216;-57
2023/09/25 05:40:40;;;;;;;4.23;2.77;;;;;;;8.97;100.00;97240.06;5044125;28;20670;-57
2023/09/25 05:43:06;;;;;;;3.90;2.97;;;;;;;9.01;100.00;97246.81;5037706;28;20227;-57
2023/09/25 05:45:33;;;;;;;3.30;3.00;;;;;;;8.99;100.00;97246.94;5034077;28;20546;-56
2023/09/25 05:48:00;;;;;;;2.83;2.63;;;;;;;8.99;100.00;97246.09;5043498;28;20207;-58
2023/09/25 05:50:27;;;;;;;2.40;2.20;;;;;;;9.01;100.00;97244.16;5036872;28;20552;-57
2023/09/25 05:52:54;;;;;;;3.40;2.93;;;;;;;8.99;100.00;97246.09;5037407;28;20644;-57
2023/09/25 05:55:21;;;;;;;3.10;2.80;;;;;;;9.06;100.00;97239.38;5037757;28;20203;-57
2023/09/25 05:57:48;;;;;;;3.23;2.83;;;;;;;9.19;100.00;97249.81;5037582;28;20238;-57
2023/09/25 06:00:18;;;;;;;6.33;3.00;;;;;;;9.30;100.00;97250.66;5037662;28;20420;-57
2023/09/25 06:02:45;;;;;;;3.57;3.10;;;;;;;9.40;100.00;97248.97;5037418;28;20239;-57
2023/09/25 06:05:12;;;;;;;2.73;2.40;;;;;;;9.41;100.00;97241.91;5048964;28;20219;-57
2023/09/25 06:07:39;;;;;;;2.60;2.40;;;;;;;9.45;100.00;97243.34;5044104;28;20207;-57
2023/09/25 06:10:07;;;;;;;3.27;2.63;;;;;;;9.53;100.00;97248.81;5055491;28;20226;-57
2023/09/25 06:12:35;;;;;;;3.80;3.40;;;;;;;9.59;100.00;97248.34;5043488;28;20231;-58
2023/09/25 06:15:05;;;;;;;3.80;3.40;;;;;;;9.69;100.00;97249.28;5037330;28;20208;-58
2023/09/25 06:17:32;;;;;;;5.43;3.43;;;;;;;9.90;100.00;97252.84;5042104;28;20200;-58
2023/09/25 06:19:58;;;;;;;4.83;3.80;;;;;;;10.25;100.00;97251.81;5037178;28;20614;-57
2023/09/25 06:22:25;;;;;;;4.47;3.40;;;;;;;10.51;100.00;97247.84;5037502;28;20234;-58
2023/09/25 06:24:51;;;;;;;7.67;4.70;;;;;;;10.86;100.00;97258.13;5037672;28;20203;-58
2023/09/25 06:27:18;;;;;;;4.30;3.77;;;;;;;11.66;100.00;97264.34;5037333;28;20297;-57
2023/09/25 06:29:46;;;;;;;6.10;3.70;;;;;;;12.74;100.00;97263.41;5050784;28;20207;-58
2023/09/25 06:32:14;;;;;;;3.45;3.15;;;;;;;13.54;100.00;97268.25;5044267;28;20594;-58
2023/09/25 06:34:41;;;;;;;4.75;3.40;;;;;;;14.46;100.00;97269.00;5042905;28;20640;-58
2023/09/25 06:37:08;;;;;;;4.68;3.35;;;;;;;14.67;100.00;97264.22;5049899;28;20644;-57
2023/09/25 06:39:34;;;;;;;3.05;2.80;;;;;;;14.81;99.81;97258.34;5037100;28;20208;-57
2023/09/25 06:42:01;;;;;;;4.85;3.22;;;;;;;15.42;94.37;97255.59;5037133;28;20215;-59
2023/09/25 06:44:27;;;;;;;3.80;3.50;;;;;;;15.74;92.09;97262.13;5039428;28;20235;-58
2023/09/25 06:46:54;;;;;;;4.85;3.45;;;;;;;15.85;90.22;97256.50;5039113;28;20208;-59
2023/09/25 06:49:22;;;;;;;3.75;3.00;;;;;;;15.43;91.06;97257.28;5054119;28;20541;-58
2023/09/25 06:51:48;;;;;;;9.32;5.65;;;;;;;15.06;92.32;97258.50;5036625;28;20212;-58
2023/09/25 06:54:15;;;;;;;6.93;5.57;;;;;;;14.60;96.76;97263.16;5039158;28;20204;-58
2023/09/25 06:56:41;;;;;;;6.70;4.35;;;;;;;14.09;100.00;97258.47;5036855;28;20211;-57
2023/09/25 06:59:08;;;;;;;7.13;4.70;;;;;;;13.91;100.00;97255.78;5036371;28;20227;-58
2023/09/25 07:01:35;;;;;;;4.82;4.30;;;;;;;13.62;100.00;97264.88;5045848;28;20281;-55
2023/09/25 07:04:01;;;;;;;4.85;3.95;;;;;;;13.35;100.00;97260.38;5041155;28;20230;-54
2023/09/25 07:06:30;;;;;;;3.35;3.00;;;;;;;13.36;100.00;97264.69;5043839;28;20212;-54
2023/09/25 07:08:57;;;;;;;5.15;3.33;;;;;;;13.02;100.00;97269.63;5043995;28;20226;-55
2023/09/25 07:11:23;;;;;;;3.75;3.35;;;;;;;12.86;100.00;97259.59;5043460;28;20262;-55
2023/09/25 07:13:50;;;;;;;3.47;3.17;;;;;;;12.71;100.00;97258.38;5043592;28;20276;-56
2023/09/25 07:16:16;;;;;;;5.10;3.53;;;;;;;12.59;100.00;97248.88;5043967;28;20350;-55
2023/09/25 07:18:43;;;;;;;6.70;3.30;;;;;;;12.33;100.00;97264.50;5042040;28;20208;-56
2023/09/25 07:21:10;;;;;;;4.90;3.43;;;;;;;12.33;100.00;97272.47;5043074;28;20261;-55
2023/09/25 07:23:38;;;;;;;5.20;3.63;;;;;;;12.35;100.00;97272.34;5043041;28;20242;-56
2023/09/25 07:26:07;;;;;;;4.23;3.20;;;;;;;12.41;100.00;97274.44;5043796;28;20203;-53
2023/09/25 07:28:33;;;;;;;3.97;3.33;;;;;;;12.38;100.00;97272.91;5043057;28;20231;-55
2023/09/25 07:31:01;;;;;;;4.57;3.40;;;;;;;12.44;100.00;97260.88;5042543;28;20667;-54
2023/09/25 07:33:28;;;;;;;4.83;3.60;;;;;;;12.37;100.00;97267.72;5042973;28;20208;-56
2023/09/25 07:35:55;;;;;;;5.60;3.50;;;;;;;12.42;100.00;97263.69;5042734;28;20690;-55
2023/09/25 07:38:22;;;;;;;7.23;3.50;;;;;;;12.43;100.00;97254.75;5043302;28;20214;-55
2023/09/25 07:40:50;;;;;;;4.37;3.50;;;;;;;12.54;100.00;97250.28;5042956;28;20290;-56
2023/09/25 07:43:19;;;;;;;3.57;3.27;;;;;;;12.67;100.00;97254.34;5042666;28;20223;-55
2023/09/25 07:45:47;;;;;;;4.33;3.70;;;;;;;12.69;100.00;97254.16;5042590;28;20654;-54
2023/09/25 07:48:13;;;;;;;5.00;3.90;;;;;;;12.74;100.00;97258.09;5043870;28;20261;-53
2023/09/25 07:50:40;;;;;;;5.43;3.60;;;;;;;12.76;100.00;97264.09;5043174;28;20211;-54
2023/09/25 07:53:07;;;;;;;5.50;3.70;;;;;;;12.81;100.00;97266.31;5043663;28;20242;-55
2023/09/25 07:55:33;;;;;;;6.23;3.90;;;;;;;12.83;100.00;97262.53;5042871;28;20204;-55
2023/09/25 07:58:03;;;;;;;5.43;3.63;;;;;;;12.89;100.00;97261.97;5042706;28;20210;-55
2023/09/25 08:00:37;;;;;;;5.53;3.77;;;;;;;12.96;100.00;97254.28;5043293;28;20199;-63
2023/09/25 08:03:04;;;;;;;5.13;3.90;;;;;;;12.95;100.00;97257.91;5042182;28;20212;-54
2023/09/25 08:05:30;;;;;;;5.90;3.80;;;;;;;12.98;100.00;97258.47;5041997;28;20203;-54
2023/09/25 08:07:57;;;;;;;4.07;3.70;;;;;;;13.07;100.00;97256.78;5041851;28;20343;-54
2023/09/25 08:10:23;;;;;;;6.23;4.17;;;;;;;13.09;100.00;97256.63;5041585;28;20633;-54
2023/09/25 08:12:50;;;;;;;5.03;3.73;;;;;;;13.07;100.00;97254.13;5042641;28;20195;-54
2023/09/25 08:15:18;;;;;;;4.53;3.60;;;;;;;13.19;100.00;97258.31;5042157;28;20214;-54
2023/09/25 08:17:46;;;;;;;5.57;3.90;;;;;;;13.30;100.00;97254.63;5041597;28;20536;-55
2023/09/25 08:20:18;;;;;;;5.13;3.93;;;;;;;13.22;100.00;97262.47;5042186;28;20207;-55
2023/09/25 08:22:45;;;;;;;4.50;4.07;;;;;;;13.32;100.00;97263.31;5041685;28;20290;-54
2023/09/25 08:25:12;;;;;;;5.87;4.10;;;;;;;13.39;100.00;97267.06;5042176;28;20207;-53
2023/09/25 08:27:39;;;;;;;4.93;4.37;;;;;;;13.48;100.00;97263.53;5041514;28;20239;-54
2023/09/25 08:30:07;;;;;;;4.37;3.93;;;;;;;13.60;100.00;97262.38;5041982;28;20204;-53
2023/09/25 08:32:35;;;;;;;7.13;4.60;;;;;;;13.70;100.00;97251.69;5042028;28;20204;-54
2023/09/25 08:35:03;;;;;;;6.73;4.13;;;;;;;13.67;100.00;97262.63;5042414;28;20531;-54
2023/09/25 08:37:29;;;;;;;5.97;4.30;;;;;;;13.72;100.00;97261.19;5041724;28;20207;-55
2023/09/25 08:39:56;;;;;;;5.27;4.20;;;;;;;13.81;100.00;97262.97;5041529;28;20203;-55
2023/09/25 08:42:25;;;;;;;6.43;4.70;;;;;;;13.86;100.00;97268.66;5041839;28;20552;-55
2023/09/25 08:44:52;;;;;;;7.03;4.80;;;;;;;14.04;100.00;97273.19;5042222;28;20247;-55
2023/09/25 08:47:20;;;;;;;4.78;4.18;;;;;;;14.28;100.00;97273.44;5041861;28;20647;-55
2023/09/25 08:49:49;;;;;;;6.13;4.55;;;;;;;14.39;100.00;97268.78;5041491;28;20216;-54
2023/09/25 08:52:16;;;;;;;7.03;4.30;;;;;;;14.56;100.00;97263.63;5040941;28;20203;-54
2023/09/25 08:54:42;;;;;;;7.20;4.20;;;;;;;14.81;100.00;97266.31;5041848;28;20203;-54
2023/09/25 08:57:09;;;;;;;6.28;4.65;;;;;;;15.03;100.00;97270.31;5041303;28;20252;-55
2023/09/25 08:59:37;;;;;;;5.18;3.95;;;;;;;15.29;100.00;97268.53;5041487;28;20211;-55
2023/09/25 09:02:04;;;;;;;4.93;3.95;;;;;;;15.45;100.00;97265.94;5042018;28;20208;-55
2023/09/25 09:04:30;;;;;;;4.40;3.97;;;;;;;15.74;100.00;97270.13;5040749;28;20230;-54
2023/09/25 09:06:59;;;;;;;6.53;4.55;;;;;;;15.95;98.61;97275.88;5041333;28;20515;-55
2023/09/25 09:09:25;;;;;;;4.65;3.95;;;;;;;16.19;96.85;97267.94;5041275;28;20647;-55
2023/09/25 09:11:52;;;;;;;4.72;4.05;;;;;;;16.23;96.45;97265.78;5040977;28;20671;-55
2023/09/25 09:14:32;;;;;;;5.47;3.35;;;;;;;16.38;95.34;97264.16;5041163;28;20227;-54
2023/09/25 09:16:59;;;;;;;4.65;3.70;;;;;;;16.54;94.48;97263.38;5041381;28;20562;-56
2023/09/25 09:19:26;;;;;;;5.68;3.38;;;;;;;16.54;93.01;97264.22;5040785;28;20633;-55
2023/09/25 09:22:04;;;;;;;5.43;3.70;;;;;;;16.89;93.61;97258.59;5042001;28;20279;-53
2023/09/25 09:24:32;;;;;;;4.85;4.00;;;;;;;16.90;89.78;97259.41;5045239;28;20216;-56
2023/09/25 09:26:59;;;;;;;5.63;3.95;;;;;;;17.09;92.20;97260.91;5046160;28;20639;-56
2023/09/25 09:29:26;;;;;;;3.80;3.40;;;;;;;17.28;91.26;97255.19;5046354;28;20219;-55
2023/09/25 09:31:54;;;;;;;4.38;3.40;;;;;;;17.63;89.59;97252.13;5045744;28;20254;-55
2023/09/25 09:34:23;;;;;;;6.30;3.97;;;;;;;17.63;88.45;97252.13;5045260;28;20207;-56
2023/09/25 09:36:53;;;;;;;3.65;3.35;;;;;;;17.64;89.53;97251.13;5045578;28;20213;-55
2023/09/25 09:39:25;;;;;;;3.38;3.08;;;;;;;17.85;86.65;97253.25;5045501;28;20210;-54
2023/09/25 09:41:52;;;;;;;4.10;3.20;;;;;;;17.93;87.27;97253.19;5045401;28;20206;-55
2023/09/25 09:44:18;;;;;;;3.55;3.10;;;;;;;18.29;87.67;97253.50;5045786;28;20227;-55
2023/09/25 09:46:46;;;;;;;3.63;3.30;;;;;;;18.22;86.00;97242.66;5045327;28;20210;-56
2023/09/25 09:49:14;;;;;;;4.05;3.47;;;;;;;18.48;86.42;97242.34;5045275;28;20210;-55
2023/09/25 09:51:42;;;;;;;3.20;2.88;;;;;;;18.75;87.68;97241.84;5044800;28;20199;-55
2023/09/25 09:54:13;;;;;;;4.28;3.15;;;;;;;19.00;84.41;97237.13;5045215;28;20207;-55
2023/09/25 09:56:41;;;;;;;4.03;3.10;;;;;;;19.17;83.27;97230.59;5044658;28;20195;-55
2023/09/25 09:59:07;;;;;;;3.55;3.20;;;;;;;19.18;82.49;97228.75;5044416;28;20218;-54
2023/09/25 10:01:34;;;;;;;4.28;2.90;;;;;;;19.72;82.59;97237.41;5045125;28;20204;-54
2023/09/25 10:04:01;;;;;;;3.20;2.90;;;;;;;19.59;79.75;97237.25;5044736;28;20223;-56
2023/09/25 10:06:29;;;;;;;3.58;3.20;;;;;;;19.94;81.82;97236.50;5044899;28;20212;-55
2023/09/25 10:09:03;;;;;;;3.13;2.92;;;;;;;20.19;78.01;97234.31;5044416;28;20199;-56
2023/09/25 10:11:30;;;;;;;2.80;2.60;;;;;;;20.32;78.23;97235.31;5043901;28;20738;-54
2023/09/25 10:14:03;;;;;;;4.20;3.10;;;;;;;20.15;79.37;97236.53;5044829;28;20196;-55
2023/09/25 10:16:30;;;;;;;3.20;2.90;;;;;;;20.30;77.61;97237.34;5044920;28;20614;-55
2023/09/25 10:18:57;;;;;;;3.30;2.80;;;;;;;20.11;77.41;97237.94;5045848;28;20199;-53
2023/09/25 10:21:23;;;;;;;3.58;2.83;;;;;;;20.23;76.48;97230.22;5056920;28;20207;-55
2023/09/25 10:23:54;;;;;;;3.45;3.15;;;;;;;19.73;76.02;97237.22;5045783;28;20239;-54
2023/09/25 10:26:21;;;;;;;3.20;2.90;;;;;;;20.13;78.27;97235.88;5044844;28;20231;-56
2023/09/25 10:28:58;;;;;;;4.63;3.30;;;;;;;19.93;76.71;97224.06;5045569;28;20231;-53
2023/09/25 10:31:29;;;;;;;3.53;2.72;;;;;;;19.96;76.02;97228.22;5044799;28;20218;-55
2023/09/25 10:33:57;;;;;;;3.90;2.97;;;;;;;20.09;75.12;97228.38;5043717;28;20191;-54
2023/09/25 10:36:35;;;;;;;3.30;3.00;;;;;;;20.37;74.44;97220.50;5044104;28;20669;-54
2023/09/25 10:39:02;;;;;;;3.45;2.90;;;;;;;20.63;72.70;97226.97;5044640;28;20196;-55
2023/09/25 10:41:28;;;;;;;3.33;2.67;;;;;;;20.30;75.14;97223.09;5044709;28;20218;-56
2023/09/25 10:43:57;;;;;;;2.80;2.58;;;;;;;20.48;74.89;97222.66;5044212;28;20535;-54
2023/09/25 10:46:23;;;;;;;2.85;2.65;;;;;;;20.37;74.86;97225.88;5044727;28;20222;-56
2023/09/25 10:48:51;;;;;;;3.60;2.72;;;;;;;20.65;77.99;97224.91;5043930;28;20203;-55
2023/09/25 10:51:19;;;;;;;3.17;2.72;;;;;;;20.55;74.50;97221.72;5043369;28;20657;-53
2023/09/25 10:53:46;;;;;;;2.95;2.70;;;;;;;20.88;76.18;97229.25;5043339;28;20269;-55
2023/09/25 10:56:12;;;;;;;3.00;2.70;;;;;;;20.90;73.92;97227.22;5043839;28;20215;-55
2023/09/25 10:58:39;;;;;;;3.20;3.00;;;;;;;20.98;74.42;97227.06;5043621;28;20223;-56
2023/09/25 11:01:05;;;;;;;3.45;2.83;;;;;;;21.00;72.84;97233.94;5043248;28;20695;-55
2023/09/25 11:03:32;;;;;;;2.92;2.72;;;;;;;21.11;73.31;97220.00;5042907;28;20577;-56
2023/09/25 11:06:00;;;;;;;2.70;2.50;;;;;;;21.17;71.82;97221.91;5043570;28;20236;-55
2023/09/25 11:08:27;;;;;;;3.50;2.65;;;;;;;21.39;72.98;97217.31;5043065;28;20218;-54
2023/09/25 11:10:53;;;;;;;2.65;2.45;;;;;;;21.30;74.13;97223.84;5043566;28;20294;-55
2023/09/25 11:13:21;;;;;;;3.03;2.28;;;;;;;21.35;72.34;97221.41;5043476;28;20196;-55
2023/09/25 11:15:47;;;;;;;2.53;2.30;;;;;;;21.65;74.51;97212.06;5043376;28;20652;-54
2023/09/25 11:18:14;;;;;;;4.65;2.58;;;;;;;22.16;74.01;97219.81;5043310;28;20281;-56
2023/09/25 11:20:43;;;;;;;3.45;2.30;;;;;;;22.22;69.92;97224.38;5043638;28;20210;-56
2023/09/25 11:23:12;;;;;;;2.63;2.10;;;;;;;22.56;67.88;97218.06;5043132;28;20430;-55
2023/09/25 11:25:41;;;;;;;2.75;2.50;;;;;;;22.43;68.37;97212.63;5043178;28;20223;-56
2023/09/25 11:28:08;;;;;;;3.55;2.33;;;;;;;22.88;65.35;97203.84;5042910;28;20231;-56
2023/09/25 11:30:35;;;;;;;2.70;2.50;;;;;;;22.75;62.91;97209.22;5043127;28;20258;-55
2023/09/25 11:33:06;;;;;;;2.05;1.95;;;;;;;22.95;66.61;97204.69;5043229;28;20207;-57